KPIA/PIA METAR and TAF weather

Enter ICAO airport designator
Station Type Date Time Source
KPIA METAR 2020/01/18 12:54 UTC NOAA

KPIA 181254Z 23008KT 3SM BR OVC003 02/02 A2974 RMK AO2 UPE05B26E53RAB05E22 SLP077 P0002 T00170017 $


Station Type Date Time Source
KPIA Decoded METAR 2020/01/18 12:54 UTC NOAA

GREATER PEORIA REGIONAL AIRPORT , IL, United States (KPIA) 40-40N 89-41W 205M
Jan 18, 2020 - 07:54 AM EST / 2020.01.18 1254 UTC
Wind: from the SW (230 degrees) at 9 MPH (8 KT):0
Visibility: 3 mile(s):0
Sky conditions: overcast
Weather: mist
Precipitation last hour: 0.02 inches
Temperature: 35.1 F (1.7 C)
Dew Point: 35.1 F (1.7 C)
Relative Humidity: 100%
Pressure (altimeter): 29.74 in. Hg (1007 hPa)
ob: KPIA 181254Z 23008KT 3SM BR OVC003 02/02 A2974 RMK AO2 UPE05B26E53RAB05E22 SLP077 P0002 T00170017
cycle: 13

Station Type Date Time Source
KPIA TAF 2020/01/18 12:40 UTC NOAA

TAF KPIA 181138Z 1812/1912 19010KT 3SM -RA OVC002 WS020/23040KT
FM181400 24014G22KT 4SM -RA BR OVC003
FM181600 26018G29KT P6SM OVC006
FM182000 28022G34KT P6SM OVC014
FM190500 29017G27KT P6SM BKN020
FM190900 29015KT P6SM BKN030

Example: see airport list